West Yellowstone, MT

2:08 AM MST on November 23, 2014 (GMT -0700)
Lower Beartrap | Change Station
CLOSE
Current Station
Personal Weather Station
Location: West Yellowstone, MT
Elevation: 6565 ft
Nearby Weather Stations
Active Advisory: Winter Weather Advisory

Elev 6565 ft 44.79 °N, 111.14 °W | Updated 8 minutes ago

Overcast
Overcast
17.6 °F
Feels Like 13 °F
N
3.1
Wind Variable Wind from East
Gusts 3.1 mph

Today
High -- | Low -- °F
--% Chance of Precip.
Yesterday
High -- | Low -- °F
Precip. -- in
7:32 AM 4:49 PM
New Moon, 1% visible
Pressure 29.87 in
Visibility -9999.0 miles
Clouds
Windchill 13 °F
Dew Point 13 °F
Humidity 82%
Rainfall 0.00 in
Snow Depth Not available.
UV Not available.
Pollen .10 out of 12
Air Quality Not available.
Flu Activity Not available.
METAR KP60 230856Z AUTO 28003KT M12/M14 A2979 RMK AO1 SLP114 T11221144 53010

More Conditions Fewer Conditions

Pressure 29.87 in
Visibility -9999.0 miles
Clouds
Windchill 13 °F
Dew Point 13 °F
Humidity 82%
Rainfall 0.00 in
Snow Depth Not available.
UV Not available.
Pollen .10 out of 12
Air Quality Not available.
Flu Activity Not available.
METAR KP60 230856Z AUTO 28003KT M12/M14 A2979 RMK AO1 SLP114 T11221144 53010

More Conditions Fewer Conditions

10-Day Weather Forecast

Almanac

Astronomy

Nov. 23, 2014 Rise Set
Actual Time
Civil Twilight
Nautical Twilight
Astronomical Twilight
Moon
Length of Visible Light
Length of Day
Tomorrow will be .
, % of the Moon is Illuminated

Today's Extremes

State Highs State Lows

Community

WunderPhotos

Upload Photos

1,773,024 photos uploaded!

WunderBlogs® & News

Nearby

Air Quality

  Air Quality AQ Index Pollutant
Not available.

Snow Depth

Station Depth Elevation

Earthquake Activity

City Distance Mag. Time & Date
Minimum magnitude displayed is 2.5.

Coastal Water Temperatures

Place Temperature

Nearby Weather Stations